Time;durP1;ratioP1;P1;durP2;ratioP2;P2;SDS_P1;SDS_P2;PMS_P1;PMS_P2;Temp;Humidity;BMP_temperature;BMP_pressure;BME280_temperature;BME280_humidity;BME280_pressure;Samples;Min_cycle;Max_cycle;Signal;HPM_P1;HPM_P2
2021/09/18 00:01:23;;;;;;;39.47;29.83;;;14.30;99.90;;;;;;5051655;28;20444;-54
2021/09/18 00:03:51;;;;;;;35.73;27.80;;;14.30;99.90;;;;;;5051857;28;20456;-58
2021/09/18 00:06:18;;;;;;;32.23;26.70;;;14.20;99.90;;;;;;5052047;28;20468;-58
2021/09/18 00:08:44;;;;;;;36.97;28.93;;;14.20;99.90;;;;;;5051872;28;20480;-54
2021/09/18 00:11:11;;;;;;;40.23;28.90;;;14.20;99.90;;;;;;5051700;28;20440;-55
2021/09/18 00:13:38;;;;;;;34.40;30.57;;;14.20;99.90;;;;;;5051330;28;20448;-56
2021/09/18 00:16:05;;;;;;;44.97;33.50;;;14.20;99.90;;;;;;5051375;28;20480;-52
2021/09/18 00:18:32;;;;;;;42.83;31.73;;;14.20;99.90;;;;;;5051777;28;20447;-56
2021/09/18 00:21:02;;;;;;;34.67;28.53;;;14.20;99.90;;;;;;5051575;28;20459;-56
2021/09/18 00:23:29;;;;;;;33.47;26.57;;;14.20;99.90;;;;;;5051416;28;20899;-58
2021/09/18 00:25:56;;;;;;;37.50;28.30;;;14.20;99.90;;;;;;5051580;28;20488;-56
2021/09/18 00:28:22;;;;;;;36.70;28.70;;;14.10;99.90;;;;;;5051584;28;20444;-53
2021/09/18 00:30:49;;;;;;;38.17;29.30;;;14.10;99.90;;;;;;5051575;28;20813;-57
2021/09/18 00:33:16;;;;;;;39.17;29.90;;;14.10;99.90;;;;;;5051046;28;20452;-58
2021/09/18 00:35:42;;;;;;;43.37;30.07;;;14.00;99.90;;;;;;5051385;28;20472;-58
2021/09/18 00:38:10;;;;;;;39.40;30.57;;;14.00;99.90;;;;;;5051408;28;20800;-57
2021/09/18 00:40:37;;;;;;;40.33;29.13;;;14.00;99.90;;;;;;5051225;28;20486;-53
2021/09/18 00:43:04;;;;;;;42.03;33.30;;;14.00;99.90;;;;;;5051273;28;20922;-54
2021/09/18 00:45:31;;;;;;;44.10;35.53;;;13.90;99.90;;;;;;5051289;28;20468;-53
2021/09/18 00:47:57;;;;;;;47.03;32.10;;;13.90;99.90;;;;;;5051384;28;20444;-53
2021/09/18 00:50:24;;;;;;;44.07;32.40;;;13.90;99.90;;;;;;5053503;28;20889;-57
2021/09/18 00:52:51;;;;;;;44.90;32.87;;;13.90;99.90;;;;;;5057718;28;21022;-56
2021/09/18 00:55:19;;;;;;;40.73;31.00;;;13.80;99.90;;;;;;5058051;28;20444;-55
2021/09/18 00:57:46;;;;;;;42.47;33.67;;;13.80;99.90;;;;;;5057830;28;20439;-56
2021/09/18 01:00:14;;;;;;;41.83;31.23;;;13.80;99.90;;;;;;5057831;28;20440;-54
2021/09/18 01:02:41;;;;;;;43.77;34.60;;;13.80;99.90;;;;;;5057454;28;21124;-57
2021/09/18 01:05:09;;;;;;;51.10;37.73;;;13.70;99.90;;;;;;5057778;28;20448;-56
2021/09/18 01:07:37;;;;;;;50.97;36.97;;;13.70;99.90;;;;;;5057957;28;20848;-53
2021/09/18 01:10:06;;;;;;;46.97;33.20;;;13.70;99.90;;;;;;5057785;28;20483;-55
2021/09/18 01:12:34;;;;;;;47.60;36.67;;;13.70;99.90;;;;;;5057214;28;20786;-53
2021/09/18 01:15:01;;;;;;;50.17;35.90;;;13.70;99.90;;;;;;5057790;28;20522;-54
2021/09/18 01:17:27;;;;;;;57.77;39.87;;;13.70;99.90;;;;;;5057523;28;20479;-56
2021/09/18 01:19:54;;;;;;;59.63;40.97;;;13.70;99.90;;;;;;5057785;28;20450;-56
2021/09/18 01:22:26;;;;;;;58.73;42.10;;;13.60;99.90;;;;;;5057084;28;20965;-53
2021/09/18 01:24:54;;;;;;;60.37;42.27;;;13.60;99.90;;;;;;5057950;28;20447;-53
2021/09/18 01:27:21;;;;;;;74.53;46.50;;;13.60;99.90;;;;;;5057669;28;20463;-53
2021/09/18 01:29:47;;;;;;;68.60;44.20;;;13.60;99.90;;;;;;5057600;28;20486;-54
2021/09/18 01:32:18;;;;;;;66.50;43.63;;;13.60;99.90;;;;;;5057025;28;20448;-53
2021/09/18 01:34:45;;;;;;;66.60;43.70;;;13.60;99.90;;;;;;5057540;28;20471;-53
2021/09/18 01:37:12;;;;;;;64.70;42.10;;;13.60;99.90;;;;;;5057641;28;20843;-53
2021/09/18 01:39:38;;;;;;;68.30;41.70;;;13.60;99.90;;;;;;5057341;28;20440;-52
2021/09/18 01:42:07;;;;;;;75.33;44.90;;;13.50;99.90;;;;;;5057163;28;20459;-55
2021/09/18 01:44:33;;;;;;;66.80;43.93;;;13.60;99.90;;;;;;5057391;28;20440;-53
2021/09/18 01:47:00;;;;;;;70.33;41.90;;;13.60;99.90;;;;;;5057573;28;20975;-56
2021/09/18 01:49:28;;;;;;;64.30;42.33;;;13.60;99.90;;;;;;5057163;28;20482;-53
2021/09/18 01:51:57;;;;;;;54.00;38.10;;;13.60;99.90;;;;;;5057485;28;20532;-52
2021/09/18 01:54:24;;;;;;;58.27;39.60;;;13.60;99.90;;;;;;5057461;28;20582;-55
2021/09/18 01:56:51;;;;;;;60.20;41.33;;;13.50;99.90;;;;;;5057360;28;20479;-54
2021/09/18 01:59:19;;;;;;;66.40;43.07;;;13.50;99.90;;;;;;5056869;28;20852;-52
2021/09/18 02:01:46;;;;;;;66.17;43.97;;;13.50;99.90;;;;;;5055007;28;20455;-52
2021/09/18 02:04:12;;;;;;;65.43;41.90;;;13.50;99.90;;;;;;5054318;28;20459;-53
2021/09/18 02:06:39;;;;;;;61.63;41.00;;;13.50;99.90;;;;;;5054173;28;20825;-54
2021/09/18 02:09:06;;;;;;;59.37;41.73;;;13.50;99.90;;;;;;5053916;28;20453;-53
2021/09/18 02:11:32;;;;;;;68.80;41.70;;;13.50;99.90;;;;;;5053773;28;20455;-53
2021/09/18 02:13:59;;;;;;;69.17;45.60;;;13.40;99.90;;;;;;5054135;28;20787;-56
2021/09/18 02:16:27;;;;;;;62.90;45.33;;;13.40;99.90;;;;;;5053775;28;20476;-54
2021/09/18 02:18:54;;;;;;;57.47;39.87;;;13.40;99.90;;;;;;5053638;28;20790;-52
2021/09/18 02:21:21;;;;;;;73.47;47.67;;;13.40;99.90;;;;;;5053655;28;20817;-53
2021/09/18 02:23:48;;;;;;;72.73;45.87;;;13.30;99.90;;;;;;5053901;28;20444;-58
2021/09/18 02:26:15;;;;;;;74.70;46.00;;;13.30;99.90;;;;;;5053740;28;20473;-57
2021/09/18 02:28:42;;;;;;;61.00;40.50;;;13.30;99.90;;;;;;5053476;28;20445;-57
2021/09/18 02:31:09;;;;;;;60.60;39.67;;;13.30;99.90;;;;;;5053411;28;20483;-57
2021/09/18 02:33:37;;;;;;;59.10;39.73;;;13.30;99.90;;;;;;5053766;28;20448;-53
2021/09/18 02:36:04;;;;;;;59.77;41.43;;;13.30;99.90;;;;;;5053570;28;20475;-56
2021/09/18 02:38:30;;;;;;;73.33;45.17;;;13.20;99.90;;;;;;5053577;28;20452;-58
2021/09/18 02:40:57;;;;;;;83.87;51.73;;;13.20;99.90;;;;;;5053225;28;20506;-58
2021/09/18 02:43:24;;;;;;;73.87;44.40;;;13.20;99.90;;;;;;5053476;28;20452;-59
2021/09/18 02:45:50;;;;;;;63.40;41.57;;;13.20;99.90;;;;;;5053466;28;20463;-58
2021/09/18 02:48:17;;;;;;;81.70;55.03;;;13.20;99.90;;;;;;5053270;28;20444;-56
2021/09/18 02:50:45;;;;;;;67.87;46.13;;;13.20;99.90;;;;;;5053297;28;20828;-58
2021/09/18 02:53:12;;;;;;;67.13;43.30;;;13.20;99.90;;;;;;5053162;28;20462;-58
2021/09/18 02:55:39;;;;;;;67.73;41.60;;;13.10;99.90;;;;;;5053258;28;20464;-58
2021/09/18 02:58:05;;;;;;;60.07;41.53;;;13.10;99.90;;;;;;5052874;28;20519;-57
2021/09/18 03:00:32;;;;;;;70.83;47.37;;;13.10;99.90;;;;;;5052975;28;20444;-57
2021/09/18 03:02:59;;;;;;;67.77;44.70;;;13.10;99.90;;;;;;5052953;28;20813;-56
2021/09/18 03:05:26;;;;;;;69.17;43.63;;;13.10;99.90;;;;;;5052970;28;20467;-58
2021/09/18 03:07:54;;;;;;;70.63;43.97;;;13.10;99.90;;;;;;5052728;28;20531;-58
2021/09/18 03:10:20;;;;;;;67.57;39.67;;;13.10;99.90;;;;;;5052840;28;21127;-58
2021/09/18 03:12:47;;;;;;;55.90;39.73;;;13.00;99.90;;;;;;5052602;28;20455;-57
2021/09/18 03:15:14;;;;;;;59.73;39.37;;;13.00;99.90;;;;;;5052760;28;20459;-58
2021/09/18 03:17:41;;;;;;;62.80;39.87;;;13.00;99.90;;;;;;5052787;28;20807;-58
2021/09/18 03:20:08;;;;;;;68.50;40.97;;;13.00;99.90;;;;;;5052759;28;20440;-58
2021/09/18 03:22:35;;;;;;;54.53;39.00;;;12.90;99.90;;;;;;5052262;28;20444;-58
2021/09/18 03:25:04;;;;;;;59.57;40.17;;;12.90;99.90;;;;;;5052726;28;20452;-59
2021/09/18 03:27:31;;;;;;;63.40;40.60;;;12.90;99.90;;;;;;5052294;28;20456;-57
2021/09/18 03:29:57;;;;;;;59.37;40.27;;;12.80;99.90;;;;;;5052546;28;20492;-58
2021/09/18 03:32:24;;;;;;;64.77;42.40;;;12.80;99.90;;;;;;5052323;28;20452;-58
2021/09/18 03:34:51;;;;;;;67.97;42.07;;;12.80;99.90;;;;;;5052450;28;20440;-57
2021/09/18 03:37:18;;;;;;;62.43;39.27;;;12.80;99.90;;;;;;5052286;28;20467;-56
2021/09/18 03:39:44;;;;;;;56.43;37.40;;;12.80;99.90;;;;;;5052761;28;20441;-53
2021/09/18 03:42:13;;;;;;;63.43;40.73;;;12.70;99.90;;;;;;5052269;28;20489;-54
2021/09/18 03:44:39;;;;;;;73.20;41.20;;;12.70;99.90;;;;;;5052475;28;20444;-54
2021/09/18 03:47:06;;;;;;;60.40;40.70;;;12.70;99.90;;;;;;5051995;28;20495;-55
2021/09/18 03:49:33;;;;;;;66.40;41.00;;;12.70;99.90;;;;;;5052328;28;20448;-55
2021/09/18 03:52:00;;;;;;;72.60;41.60;;;12.70;99.90;;;;;;5052154;28;20451;-56
2021/09/18 03:54:26;;;;;;;67.77;44.00;;;12.60;99.90;;;;;;5052227;28;20530;-57
2021/09/18 03:56:54;;;;;;;68.40;41.43;;;12.60;99.90;;;;;;5051912;28;20468;-56
2021/09/18 03:59:22;;;;;;;59.10;38.20;;;12.60;99.90;;;;;;5052254;28;20502;-57
2021/09/18 04:01:49;;;;;;;61.90;38.73;;;12.60;99.90;;;;;;5051971;28;20506;-53
2021/09/18 04:04:16;;;;;;;54.57;39.77;;;12.60;99.90;;;;;;5052072;28;20444;-53
2021/09/18 04:06:42;;;;;;;57.90;40.27;;;12.50;99.90;;;;;;5051679;28;20472;-53
2021/09/18 04:09:09;;;;;;;63.23;40.50;;;12.50;99.90;;;;;;5052119;28;20451;-55
2021/09/18 04:11:36;;;;;;;58.63;40.73;;;12.50;99.90;;;;;;5051480;28;20480;-53
2021/09/18 04:14:03;;;;;;;60.53;39.67;;;12.50;99.90;;;;;;5051754;28;20453;-57
2021/09/18 04:16:31;;;;;;;70.83;41.20;;;12.40;99.90;;;;;;5073931;22;20494;-59
2021/09/18 04:18:58;;;;;;;85.97;48.77;;;12.50;99.90;;;;;;5083131;28;20450;-57
2021/09/18 04:21:25;;;;;;;75.73;47.57;;;12.50;99.90;;;;;;5092169;28;20438;-57
2021/09/18 04:23:52;;;;;;;83.47;46.67;;;12.50;99.90;;;;;;5091808;28;20445;-60
2021/09/18 04:26:18;;;;;;;73.20;44.90;;;12.50;99.90;;;;;;5084030;28;20459;-56
2021/09/18 04:28:45;;;;;;;74.70;46.00;;;12.60;99.90;;;;;;5071452;28;20447;-54
2021/09/18 04:31:12;;;;;;;89.60;47.77;;;12.60;99.90;;;;;;5071551;28;20475;-59
2021/09/18 04:33:40;;;;;;;78.30;47.20;;;12.60;99.90;;;;;;5069031;28;20984;-56
2021/09/18 04:36:07;;;;;;;89.43;50.57;;;12.60;99.90;;;;;;5051661;28;20468;-59
2021/09/18 04:38:33;;;;;;;67.30;43.03;;;12.60;99.90;;;;;;5051616;28;20442;-59
2021/09/18 04:41:00;;;;;;;74.33;43.50;;;12.60;99.90;;;;;;5051444;28;20440;-57
2021/09/18 04:43:27;;;;;;;69.70;43.53;;;12.60;99.90;;;;;;5051631;28;20449;-59
2021/09/18 04:45:54;;;;;;;67.30;44.40;;;12.50;99.90;;;;;;5071325;28;20478;-61
2021/09/18 04:48:21;;;;;;;72.37;44.40;;;12.50;99.90;;;;;;5071827;28;20444;-59
2021/09/18 04:50:49;;;;;;;84.77;47.73;;;12.50;99.90;;;;;;5071932;28;20483;-59
2021/09/18 04:53:16;;;;;;;70.63;43.80;;;12.50;99.90;;;;;;5071691;28;20439;-61
2021/09/18 04:55:43;;;;;;;109.67;54.50;;;12.50;99.90;;;;;;5052000;28;20455;-62
2021/09/18 04:58:10;;;;;;;91.83;48.23;;;12.50;99.90;;;;;;5051480;28;20447;-60
2021/09/18 05:00:37;;;;;;;73.43;42.53;;;12.50;99.90;;;;;;5051675;28;20440;-57
2021/09/18 05:03:04;;;;;;;62.80;39.73;;;12.60;99.90;;;;;;5051347;28;20459;-59
2021/09/18 05:05:31;;;;;;;75.67;45.20;;;12.50;99.90;;;;;;5068319;28;20470;-59
2021/09/18 05:07:59;;;;;;;86.60;46.30;;;12.50;99.90;;;;;;5071353;28;20451;-60
2021/09/18 05:10:26;;;;;;;60.30;38.00;;;12.50;99.90;;;;;;5071103;28;21121;-58
2021/09/18 05:12:53;;;;;;;65.17;41.30;;;12.60;99.90;;;;;;5061435;28;20447;-60
2021/09/18 05:15:20;;;;;;;72.57;43.53;;;12.50;99.90;;;;;;5039302;28;20456;-59
2021/09/18 05:17:46;;;;;;;66.70;41.60;;;12.50;99.90;;;;;;5039140;28;20480;-59
2021/09/18 05:20:14;;;;;;;69.90;43.67;;;12.50;99.90;;;;;;5039152;28;20468;-58
2021/09/18 05:22:40;;;;;;;74.57;44.17;;;12.50;99.90;;;;;;5045732;28;21039;-56
2021/09/18 05:25:09;;;;;;;83.20;47.77;;;12.50;99.90;;;;;;5059064;28;20452;-60
2021/09/18 05:27:36;;;;;;;79.87;45.27;;;12.50;99.90;;;;;;5059025;28;20475;-60
2021/09/18 05:30:03;;;;;;;70.73;45.37;;;12.50;99.90;;;;;;5058859;28;20443;-58
2021/09/18 05:32:30;;;;;;;71.33;43.13;;;12.60;99.90;;;;;;5058775;28;20470;-60
2021/09/18 05:34:56;;;;;;;95.13;48.57;;;12.60;99.90;;;;;;5050069;28;20445;-59
2021/09/18 05:37:23;;;;;;;81.00;48.50;;;12.60;99.90;;;;;;5039749;28;20476;-57
2021/09/18 05:39:50;;;;;;;74.10;48.80;;;12.70;99.90;;;;;;5042628;28;20452;-58
2021/09/18 05:42:18;;;;;;;74.33;45.40;;;12.70;99.90;;;;;;5042419;28;20501;-59
2021/09/18 05:44:45;;;;;;;83.43;46.10;;;12.70;99.90;;;;;;5042753;28;20448;-57
2021/09/18 05:47:11;;;;;;;78.33;45.97;;;12.80;99.90;;;;;;5052631;28;20471;-58
2021/09/18 05:49:38;;;;;;;78.87;46.73;;;12.80;99.90;;;;;;5062451;28;20458;-57
2021/09/18 05:52:05;;;;;;;94.57;53.90;;;12.90;99.90;;;;;;5062124;28;21043;-55
2021/09/18 05:54:32;;;;;;;81.37;49.27;;;12.90;99.90;;;;;;5055878;28;20833;-59
2021/09/18 05:56:59;;;;;;;83.03;46.37;;;13.00;99.90;;;;;;5042283;28;20925;-58
2021/09/18 05:59:27;;;;;;;74.97;46.27;;;13.10;99.90;;;;;;5042922;28;20467;-57
2021/09/18 06:01:53;;;;;;;67.20;41.77;;;13.10;99.90;;;;;;5042266;28;20448;-56
2021/09/18 06:04:20;;;;;;;83.20;43.30;;;13.20;99.90;;;;;;5042271;28;20949;-56
2021/09/18 06:06:47;;;;;;;71.73;44.27;;;13.30;99.90;;;;;;5045179;28;20917;-56
2021/09/18 06:09:13;;;;;;;68.53;42.50;;;13.40;99.90;;;;;;5061831;28;20450;-55
2021/09/18 06:11:40;;;;;;;67.40;45.50;;;13.50;99.90;;;;;;5062209;28;20482;-55
2021/09/18 06:14:07;;;;;;;64.80;43.70;;;13.50;99.90;;;;;;5062126;28;20452;-60
2021/09/18 06:16:35;;;;;;;64.70;40.13;;;13.70;99.90;;;;;;5060778;28;20486;-56
2021/09/18 06:19:01;;;;;;;72.80;44.10;;;13.80;99.90;;;;;;5047074;28;21222;-56
2021/09/18 06:21:28;;;;;;;73.93;46.30;;;13.90;99.90;;;;;;5061776;28;20443;-58
2021/09/18 06:23:55;;;;;;;72.20;44.83;;;14.00;99.90;;;;;;5061859;28;20872;-57
2021/09/18 06:26:21;;;;;;;73.23;45.40;;;14.10;99.90;;;;;;5061834;28;20463;-57
2021/09/18 06:28:49;;;;;;;64.77;43.80;;;14.20;99.90;;;;;;5056592;28;20444;-57
2021/09/18 06:31:16;;;;;;;67.43;47.23;;;14.40;99.90;;;;;;5041504;28;20480;-53
2021/09/18 06:33:44;;;;;;;69.23;43.00;;;14.50;99.90;;;;;;5041695;28;20455;-54
2021/09/18 06:36:10;;;;;;;64.23;45.10;;;14.50;99.90;;;;;;5041767;28;20468;-54
2021/09/18 06:38:37;;;;;;;71.57;44.90;;;14.60;99.90;;;;;;5041612;28;20971;-55
2021/09/18 06:41:04;;;;;;;65.80;44.47;;;14.80;99.90;;;;;;5048659;28;20452;-59
2021/09/18 06:43:32;;;;;;;67.73;44.80;;;14.90;99.90;;;;;;5061294;28;20914;-57
2021/09/18 06:45:59;;;;;;;62.10;44.57;;;15.00;99.90;;;;;;5061311;28;20471;-58
2021/09/18 06:48:26;;;;;;;52.63;42.20;;;15.10;99.90;;;;;;5060829;28;20868;-55
2021/09/18 06:50:54;;;;;;;66.67;45.13;;;15.20;99.90;;;;;;5061431;28;20491;-55
2021/09/18 06:53:21;;;;;;;55.73;43.80;;;15.40;99.90;;;;;;5054134;28;20790;-58
2021/09/18 06:55:48;;;;;;;49.07;40.37;;;15.50;99.90;;;;;;5041350;28;20476;-57
2021/09/18 06:58:14;;;;;;;44.97;38.90;;;15.60;99.90;;;;;;5041413;28;20448;-59
2021/09/18 07:00:41;;;;;;;48.70;39.00;;;15.70;99.90;;;;;;5041249;28;20834;-60
2021/09/18 07:03:08;;;;;;;48.07;37.30;;;15.70;99.90;;;;;;5040916;28;21031;-55
2021/09/18 07:05:35;;;;;;;42.53;37.53;;;15.80;99.90;;;;;;5051155;28;20451;-57
2021/09/18 07:08:03;;;;;;;45.27;37.07;;;15.90;99.90;;;;;;5061053;28;20451;-54
2021/09/18 07:10:30;;;;;;;42.77;36.90;;;15.90;99.90;;;;;;5060951;28;20435;-59
2021/09/18 07:12:58;;;;;;;44.27;39.43;;;16.00;99.90;;;;;;5060477;28;20457;-58
2021/09/18 07:15:25;;;;;;;39.60;35.20;;;16.10;99.90;;;;;;5061011;28;20483;-57
2021/09/18 07:17:52;;;;;;;42.10;34.70;;;16.10;99.90;;;;;;5050044;28;20456;-56
2021/09/18 07:20:18;;;;;;;37.83;33.67;;;16.10;99.90;;;;;;5040901;28;20463;-54
2021/09/18 07:22:45;;;;;;;36.57;32.67;;;16.20;99.90;;;;;;5040661;28;20451;-60
2021/09/18 07:25:13;;;;;;;40.27;33.70;;;16.20;99.90;;;;;;5040754;28;20444;-58
2021/09/18 07:27:40;;;;;;;38.57;34.50;;;16.30;99.90;;;;;;5040764;28;20475;-60
2021/09/18 07:30:08;;;;;;;41.73;36.63;;;16.40;99.90;;;;;;5050573;28;20788;-56
2021/09/18 07:32:35;;;;;;;36.70;33.00;;;16.50;99.90;;;;;;5060097;28;20490;-59
2021/09/18 07:35:05;;;;;;;39.83;35.10;;;16.50;99.90;;;;;;5060434;28;20444;-55
2021/09/18 07:37:33;;;;;;;39.13;34.93;;;16.50;99.90;;;;;;5058220;28;20490;-55
2021/09/18 07:40:00;;;;;;;37.27;33.23;;;16.60;99.90;;;;;;5040630;28;20555;-56
2021/09/18 07:42:28;;;;;;;37.63;33.83;;;16.60;99.90;;;;;;5040404;28;20470;-56
2021/09/18 07:44:54;;;;;;;36.33;32.60;;;16.70;99.90;;;;;;5040637;28;20459;-55
2021/09/18 07:47:21;;;;;;;37.10;33.30;;;16.70;99.90;;;;;;5040316;28;21004;-55
2021/09/18 07:49:48;;;;;;;38.50;34.50;;;16.70;99.90;;;;;;5020385;28;20951;-56
2021/09/18 07:52:16;;;;;;;38.57;34.40;;;16.80;99.90;;;;;;5019970;28;20485;-56
2021/09/18 07:54:43;;;;;;;34.97;31.30;;;16.80;99.90;;;;;;5020362;28;20923;-57
2021/09/18 07:57:10;;;;;;;34.80;31.37;;;16.90;99.90;;;;;;5020244;28;20469;-57
2021/09/18 07:59:38;;;;;;;35.77;32.23;;;17.00;99.90;;;;;;5021826;28;20456;-55
2021/09/18 08:02:05;;;;;;;32.57;29.10;;;17.20;99.90;;;;;;5059912;28;20450;-59
2021/09/18 08:04:32;;;;;;;36.80;32.13;;;17.20;99.90;;;;;;5060050;28;20458;-57
2021/09/18 08:06:58;;;;;;;33.50;30.13;;;17.20;99.90;;;;;;5059857;28;20925;-56
2021/09/18 08:09:25;;;;;;;31.40;28.50;;;17.10;99.90;;;;;;5059949;28;20451;-59
2021/09/18 08:11:52;;;;;;;33.87;30.37;;;17.20;99.90;;;;;;5058289;28;20764;-57
2021/09/18 08:14:19;;;;;;;33.33;30.00;;;17.30;99.90;;;;;;5040070;28;20452;-56
2021/09/18 08:16:47;;;;;;;33.00;29.57;;;17.50;99.90;;;;;;5039843;28;20475;-58
2021/09/18 08:19:15;;;;;;;31.07;27.83;;;17.60;99.90;;;;;;5049866;28;20466;-58
2021/09/18 08:21:42;;;;;;;32.43;29.13;;;17.80;99.90;;;;;;5062394;28;20789;-58
2021/09/18 08:24:09;;;;;;;31.67;28.33;;;18.10;99.90;;;;;;5070662;28;20448;-58
2021/09/18 08:26:36;;;;;;;31.27;28.07;;;18.20;99.90;;;;;;5070446;28;20999;-57
2021/09/18 08:29:02;;;;;;;32.73;29.73;;;18.40;99.90;;;;;;5071729;28;20447;-55
2021/09/18 08:31:29;;;;;;;30.20;27.30;;;18.50;99.90;;;;;;5071104;28;20490;-57
2021/09/18 08:33:57;;;;;;;32.10;29.10;;;18.60;99.90;;;;;;5071450;28;20475;-60
2021/09/18 08:36:24;;;;;;;32.03;28.30;;;18.70;99.90;;;;;;5071243;28;20463;-54
2021/09/18 08:38:50;;;;;;;30.60;27.60;;;18.70;99.90;;;;;;5071480;28;20963;-55
2021/09/18 08:41:17;;;;;;;29.20;26.40;;;18.80;99.90;;;;;;5071226;28;20949;-55
2021/09/18 08:43:44;;;;;;;30.77;27.77;;;18.90;99.90;;;;;;5071311;28;20833;-56
2021/09/18 08:46:11;;;;;;;30.83;27.90;;;18.90;99.90;;;;;;5071271;28;20491;-57
2021/09/18 08:48:40;;;;;;;29.77;27.27;;;19.10;99.90;;;;;;5071281;28;20439;-52
2021/09/18 08:51:10;;;;;;;32.03;29.33;;;19.20;99.90;;;;;;5071106;28;20443;-55
2021/09/18 08:53:37;;;;;;;31.60;27.83;;;19.10;99.90;;;;;;5071362;28;20451;-55
2021/09/18 08:56:04;;;;;;;31.83;29.13;;;19.20;99.90;;;;;;5071309;28;20478;-57
2021/09/18 08:58:31;;;;;;;31.37;28.47;;;19.30;99.90;;;;;;5068728;28;20448;-54
2021/09/18 09:00:59;;;;;;;32.60;29.50;;;19.30;99.90;;;;;;5070886;28;20458;-58
2021/09/18 09:03:29;;;;;;;32.27;29.47;;;19.40;99.90;;;;;;5071234;28;20454;-55
2021/09/18 09:06:07;;;;;;;33.40;30.33;;;19.40;99.90;;;;;;5071310;28;20455;-57
2021/09/18 09:08:37;;;;;;;34.43;30.87;;;19.60;99.90;;;;;;5067263;28;20444;-56
2021/09/18 09:11:19;;;;;;;32.83;29.60;;;19.70;99.90;;;;;;5051966;28;20829;-60
2021/09/18 09:13:58;;;;;;;32.90;29.97;;;19.90;99.90;;;;;;5055528;28;20526;-56
2021/09/18 09:16:26;;;;;;;36.40;33.13;;;20.00;99.90;;;;;;5054981;28;20479;-54
2021/09/18 09:18:53;;;;;;;35.80;32.00;;;20.20;99.90;;;;;;5061056;28;20451;-56
2021/09/18 09:21:22;;;;;;;34.17;30.90;;;20.20;99.90;;;;;;5074389;28;20447;-53
2021/09/18 09:26:46;;;;;;;35.77;32.53;;;20.20;99.90;;;;;;5088998;27;20622;-56
2021/09/18 09:29:13;;;;;;;36.83;33.57;;;20.40;99.90;;;;;;5064935;28;20440;-53
2021/09/18 09:31:40;;;;;;;33.47;30.30;;;20.50;99.90;;;;;;5068795;28;20443;-53
2021/09/18 09:34:11;;;;;;;34.77;31.60;;;20.60;99.90;;;;;;5062761;28;20443;-56
2021/09/18 09:36:41;;;;;;;36.17;33.10;;;20.50;99.90;;;;;;5050415;28;21009;-61
2021/09/18 09:39:11;;;;;;;35.10;31.90;;;20.70;99.90;;;;;;5066788;28;20428;-58
2021/09/18 09:41:40;;;;;;;35.17;32.17;;;20.90;99.90;;;;;;5069352;28;20448;-61
2021/09/18 09:44:12;;;;;;;38.97;35.70;;;20.90;99.90;;;;;;5072337;28;20456;-58
2021/09/18 09:46:39;;;;;;;36.83;33.63;;;21.00;99.90;;;;;;5079996;28;20451;-56
2021/09/18 09:49:12;;;;;;;36.30;33.00;;;21.20;99.90;;;;;;5091159;28;20511;-58
2021/09/18 09:51:40;;;;;;;35.50;32.30;;;21.20;99.90;;;;;;5092210;28;20439;-57
2021/09/18 09:54:26;;;;;;;38.23;34.83;;;21.30;99.90;;;;;;5089999;28;20450;-60
2021/09/18 09:57:08;;;;;;;36.87;33.80;;;21.50;99.90;;;;;;5090052;28;20459;-58
2021/09/18 09:59:37;;;;;;;39.13;35.83;;;21.70;99.90;;;;;;5088792;28;20443;-61
2021/09/18 10:02:06;;;;;;;36.00;32.90;;;21.70;99.90;;;;;;5089015;28;20445;-59
2021/09/18 10:04:33;;;;;;;35.80;32.90;;;21.60;99.90;;;;;;5091189;28;20469;-61
2021/09/18 10:07:00;;;;;;;37.10;33.80;;;21.80;99.90;;;;;;5088394;28;20877;-62
2021/09/18 10:09:27;;;;;;;38.30;35.20;;;21.80;99.90;;;;;;5087450;28;20459;-59
2021/09/18 10:11:56;;;;;;;36.47;33.37;;;22.10;99.90;;;;;;5086351;28;20447;-60
2021/09/18 10:14:24;;;;;;;34.57;31.30;;;22.10;99.90;;;;;;5071088;28;20448;-60
2021/09/18 10:16:55;;;;;;;32.40;29.83;;;22.30;99.90;;;;;;5070015;28;20491;-59
2021/09/18 10:19:32;;;;;;;31.73;29.37;;;22.20;99.90;;;;;;5070615;28;20474;-58
2021/09/18 10:24:44;;;;;;;31.17;28.73;;;22.40;99.90;;;;;;5070332;28;20444;-60
2021/09/18 10:27:16;;;;;;;31.97;29.43;;;22.60;99.90;;;;;;5069318;28;20459;-59
2021/09/18 10:29:51;;;;;;;31.23;28.90;;;22.60;99.90;;;;;;5067995;28;20428;-58
2021/09/18 10:32:24;;;;;;;30.00;27.70;;;22.70;99.90;;;;;;5071337;28;20454;-61
2021/09/18 10:35:09;;;;;;;30.40;27.40;;;23.00;99.90;;;;;;5063555;28;20958;-61
2021/09/18 10:38:09;;;;;;;29.03;26.83;;;23.20;99.90;;;;;;5059820;28;20441;-61
2021/09/18 10:40:54;;;;;;;28.57;26.43;;;23.70;99.90;;;;;;5062806;28;20524;-60
2021/09/18 10:43:25;;;;;;;29.13;26.67;;;23.90;99.90;;;;;;5063921;28;20502;-60
2021/09/18 10:45:52;;;;;;;27.93;26.03;;;24.20;99.90;;;;;;5057772;28;20460;-60
2021/09/18 10:48:44;;;;;;;27.43;25.57;;;24.40;99.90;;;;;;5056987;28;20618;-62
2021/09/18 10:51:39;;;;;;;28.63;26.70;;;24.60;99.90;;;;;;5056784;28;20448;-63
2021/09/18 10:54:10;;;;;;;27.20;25.50;;;25.40;98.30;;;;;;5046012;28;20441;-58
2021/09/18 10:57:00;;;;;;;25.63;24.23;;;26.20;94.50;;;;;;5040303;28;20489;-62
2021/09/18 10:59:44;;;;;;;28.00;26.30;;;26.40;93.70;;;;;;5043576;28;20942;-60
2021/09/18 11:02:54;;;;;;;27.63;26.03;;;26.70;90.00;;;;;;5036232;28;20448;-61
2021/09/18 11:05:46;;;;;;;29.07;27.33;;;27.10;84.10;;;;;;5045740;28;20455;-58
2021/09/18 11:08:30;;;;;;;28.03;26.43;;;27.70;79.70;;;;;;5032791;28;20520;-62
2021/09/18 11:11:00;;;;;;;29.23;27.63;;;28.30;77.90;;;;;;5033939;28;20451;-60
2021/09/18 11:13:31;;;;;;;29.37;27.90;;;28.60;73.10;;;;;;5033773;28;20445;-61
2021/09/18 11:16:00;;;;;;;31.50;29.77;;;28.60;71.20;;;;;;5033347;28;20488;-62
2021/09/18 11:18:35;;;;;;;33.93;31.83;;;29.20;66.80;;;;;;5033601;28;20453;-59
2021/09/18 11:21:08;;;;;;;32.70;30.80;;;29.90;62.60;;;;;;5033510;28;20810;-62
2021/09/18 11:23:37;;;;;;;32.87;31.13;;;29.80;60.20;;;;;;5033492;28;20444;-62
2021/09/18 11:26:44;;;;;;;32.77;30.87;;;30.00;59.30;;;;;;5033287;28;20480;-59
2021/09/18 11:29:23;;;;;;;30.67;29.07;;;31.10;58.50;;;;;;5033374;28;20449;-62
2021/09/18 11:32:04;;;;;;;30.77;29.07;;;32.00;55.10;;;;;;5033144;28;20444;-60
2021/09/18 11:34:33;;;;;;;31.73;29.83;;;30.50;54.20;;;;;;5033401;28;20452;-62
2021/09/18 11:37:02;;;;;;;31.00;29.23;;;28.90;55.70;;;;;;5033108;28;20488;-58
2021/09/18 11:39:44;;;;;;;34.07;32.10;;;29.00;58.60;;;;;;5033158;28;20445;-61
2021/09/18 11:42:25;;;;;;;30.73;28.90;;;31.40;54.90;;;;;;5032997;28;20955;-61
2021/09/18 11:44:56;;;;;;;29.80;28.00;;;33.80;51.60;;;;;;5033071;28;20502;-59
2021/09/18 11:47:26;;;;;;;34.38;32.47;;;35.80;46.70;;;;;;5033029;28;20465;-61
2021/09/18 11:49:53;;;;;;;30.27;28.77;;;37.50;42.60;;;;;;5032157;28;20205;-51
2021/09/18 11:52:20;;;;;;;30.08;28.58;;;37.70;40.00;;;;;;5032772;28;20201;-54
2021/09/18 11:54:46;;;;;;;29.13;27.73;;;38.30;38.70;;;;;;5032939;28;20581;-59
2021/09/18 11:57:19;;;;;;;28.92;27.52;;;38.60;36.40;;;;;;5032674;28;20617;-55
2021/09/18 11:59:47;;;;;;;31.38;29.77;;;36.90;37.10;;;;;;5032857;28;20206;-56
2021/09/18 12:02:13;;;;;;;31.63;29.73;;;35.00;39.10;;;;;;5032688;28;20210;-55
2021/09/18 12:04:42;;;;;;;29.57;28.13;;;33.00;41.60;;;;;;5032705;28;20202;-58
2021/09/18 12:07:11;;;;;;;30.60;29.10;;;34.80;41.80;;;;;;5032493;28;20225;-59
2021/09/18 12:09:38;;;;;;;32.67;31.08;;;36.10;39.70;;;;;;5032641;28;20206;-56
2021/09/18 12:12:05;;;;;;;30.90;29.40;;;37.60;37.20;;;;;;5032397;28;20706;-56
2021/09/18 12:14:34;;;;;;;31.13;29.17;;;39.70;34.80;;;;;;5032466;28;20206;-56
2021/09/18 12:17:15;;;;;;;28.75;26.95;;;38.80;34.70;;;;;;5032333;28;20695;-50
2021/09/18 12:19:42;;;;;;;29.25;27.85;;;39.50;34.20;;;;;;5032507;28;20201;-52
2021/09/18 12:22:09;;;;;;;26.65;25.48;;;40.10;33.10;;;;;;5032149;28;20216;-48
2021/09/18 12:24:38;;;;;;;27.67;26.23;;;40.60;31.30;;;;;;5032230;28;20213;-57
2021/09/18 12:27:23;;;;;;;25.02;23.92;;;39.60;31.60;;;;;;5032252;28;20234;-52
2021/09/18 12:30:01;;;;;;;26.48;25.38;;;38.40;33.00;;;;;;5032092;28;20205;-54
2021/09/18 12:32:28;;;;;;;25.23;24.02;;;36.40;34.80;;;;;;5032040;28;20434;-50
2021/09/18 12:35:03;;;;;;;25.42;24.33;;;34.20;36.70;;;;;;5032202;28;20206;-60
2021/09/18 12:37:32;;;;;;;25.58;24.00;;;35.00;37.90;;;;;;5031966;28;20240;-59
2021/09/18 12:40:13;;;;;;;24.25;23.25;;;36.90;35.70;;;;;;5032042;28;20625;-54